Cleora, South Carolina
Current Conditions -  °F | °C
As of 10:15 PM on Saturday 20 Dec 2014 (Local Time) from KAIK Reporting Station
Overcast Overcast  
Wind Chill: 41°   Ceiling: 900
Heat Index: 45°   Visibility: 7mi
Dew Point: 45°   Wind: 6mph
Humidity: 100%   Direction: 70°ENE
Pressure: 30.26"   Gusts: NA
Location:  33.8233°N, 82.0147°W
Report Text: KAIK 210315Z AUTO 07005KT 7SM OVC009 07/07 A3026 RMK AO2 PNO
Loading
Personal Weather Stations






























Interactive Weather Map New forecast layout! Learn more

10-Day Weather Forecast

Advertisements
Track Severe Weather on mobile